Time;durP1;ratioP1;P1;durP2;ratioP2;P2;SDS_P1;SDS_P2;PMS_P1;PMS_P2;Temp;Humidity;BMP_temperature;BMP_pressure;BME280_temperature;BME280_humidity;BME280_pressure;Samples;Min_cycle;Max_cycle;Signal;HPM_P1;HPM_P2
2023/05/30 00:01:25;;;;;;;9.50;3.40;;;11.70;99.90;;;;;;5084514;28;20033;-58
2023/05/30 00:03:52;;;;;;;9.52;3.75;;;11.70;99.90;;;;;;5073494;28;20065;-58
2023/05/30 00:06:17;;;;;;;9.85;3.67;;;11.70;99.90;;;;;;5092720;28;20039;-59
2023/05/30 00:08:44;;;;;;;13.70;3.85;;;11.70;99.90;;;;;;5065635;28;20100;-59
2023/05/30 00:11:13;;;;;;;15.90;3.80;;;11.70;99.90;;;;;;5090764;28;20040;-58
2023/05/30 00:13:42;;;;;;;11.30;3.80;;;11.70;99.90;;;;;;5093549;28;20032;-58
2023/05/30 00:16:08;;;;;;;15.80;4.45;;;11.70;99.90;;;;;;5071742;28;20043;-58
2023/05/30 00:18:37;;;;;;;18.15;4.07;;;11.70;99.90;;;;;;5092046;28;20085;-59
2023/05/30 00:21:07;;;;;;;10.70;3.22;;;11.70;99.90;;;;;;5072831;28;20036;-59
2023/05/30 00:23:35;;;;;;;12.35;3.70;;;11.70;99.90;;;;;;5058516;28;20062;-60
2023/05/30 00:26:01;;;;;;;15.45;4.18;;;11.70;99.90;;;;;;5072070;28;20085;-57
2023/05/30 00:28:27;;;;;;;8.02;3.97;;;11.60;99.90;;;;;;5092326;28;20097;-58
2023/05/30 00:30:53;;;;;;;12.05;3.65;;;11.60;99.90;;;;;;5072903;28;20036;-60
2023/05/30 00:33:22;;;;;;;14.95;3.20;;;11.60;99.90;;;;;;5090101;28;20563;-58
2023/05/30 00:35:48;;;;;;;12.30;3.28;;;11.60;99.90;;;;;;5089259;28;20043;-58
2023/05/30 00:38:14;;;;;;;10.60;3.33;;;11.60;99.90;;;;;;5072592;28;20048;-59
2023/05/30 00:40:40;;;;;;;11.43;3.67;;;11.60;99.90;;;;;;5090742;28;20388;-57
2023/05/30 00:43:05;;;;;;;16.15;4.05;;;11.60;99.90;;;;;;5049898;28;20051;-59
2023/05/30 00:45:31;;;;;;;7.80;3.22;;;11.60;99.90;;;;;;5083381;28;20097;-58
2023/05/30 00:47:58;;;;;;;14.75;3.28;;;11.60;99.90;;;;;;5093448;28;20054;-59
2023/05/30 00:50:26;;;;;;;13.65;4.00;;;11.60;99.90;;;;;;5085616;28;20510;-58
2023/05/30 00:52:53;;;;;;;16.10;3.45;;;11.60;99.90;;;;;;5074534;28;20040;-57
2023/05/30 00:55:20;;;;;;;14.35;2.83;;;11.60;99.90;;;;;;5057940;28;20045;-59
2023/05/30 00:57:46;;;;;;;12.57;3.50;;;11.60;99.90;;;;;;5061275;28;20552;-57
2023/05/30 01:00:14;;;;;;;13.95;3.33;;;11.60;99.90;;;;;;5081091;28;20047;-57
2023/05/30 01:02:43;;;;;;;8.48;3.42;;;11.60;99.90;;;;;;5072489;28;20032;-58
2023/05/30 01:05:12;;;;;;;8.80;3.40;;;11.60;99.90;;;;;;5091149;28;20614;-57
2023/05/30 01:07:44;;;;;;;11.32;3.25;;;11.60;99.90;;;;;;5068009;28;20043;-58
2023/05/30 01:10:16;;;;;;;10.60;3.15;;;11.60;99.90;;;;;;5065827;28;20526;-59
2023/05/30 01:12:59;;;;;;;9.15;3.00;;;11.60;99.90;;;;;;5090261;28;20449;-58
2023/05/30 01:15:50;;;;;;;13.27;3.13;;;11.60;99.90;;;;;;5069466;28;20032;-58
2023/05/30 01:18:27;;;;;;;11.88;3.17;;;11.60;99.90;;;;;;5075920;28;20044;-58
2023/05/30 01:20:59;;;;;;;9.77;2.80;;;11.60;99.90;;;;;;5071855;28;20044;-58
2023/05/30 01:23:52;;;;;;;10.77;3.83;;;11.60;99.90;;;;;;5041339;28;20040;-57
2023/05/30 01:26:47;;;;;;;9.87;3.27;;;11.60;99.90;;;;;;5085961;28;20502;-58
2023/05/30 01:29:17;;;;;;;14.02;3.47;;;11.60;99.90;;;;;;5085159;28;20032;-58
2023/05/30 01:31:44;;;;;;;10.32;2.85;;;11.60;99.90;;;;;;5070587;28;20090;-58
2023/05/30 01:34:11;;;;;;;11.93;3.40;;;11.60;99.90;;;;;;5065411;28;20030;-57
2023/05/30 01:36:37;;;;;;;13.40;3.60;;;11.60;99.90;;;;;;5048178;28;20074;-57
2023/05/30 01:39:03;;;;;;;10.02;3.22;;;11.60;99.90;;;;;;5067621;28;20036;-58
2023/05/30 01:41:28;;;;;;;8.82;3.08;;;11.60;99.90;;;;;;5087162;28;20491;-59
2023/05/30 01:44:06;;;;;;;12.07;3.55;;;11.60;99.90;;;;;;5076611;28;20035;-59
2023/05/30 01:46:34;;;;;;;19.13;3.88;;;11.70;99.90;;;;;;5082351;28;20036;-58
2023/05/30 01:49:21;;;;;;;12.38;3.88;;;11.60;99.90;;;;;;5068801;28;20036;-58
2023/05/30 01:51:58;;;;;;;11.50;4.10;;;11.70;99.90;;;;;;5067337;28;20109;-60
2023/05/30 01:54:24;;;;;;;13.77;3.10;;;11.70;99.90;;;;;;5064417;28;20036;-58
2023/05/30 01:57:16;;;;;;;11.75;3.33;;;11.60;99.90;;;;;;5068465;28;20044;-60
2023/05/30 01:59:42;;;;;;;10.85;3.80;;;11.70;99.90;;;;;;5086497;28;20172;-58
2023/05/30 02:02:09;;;;;;;12.90;3.50;;;11.70;99.90;;;;;;5067433;28;20072;-59
2023/05/30 02:04:36;;;;;;;14.73;3.60;;;11.70;99.90;;;;;;5067817;28;20567;-60
2023/05/30 02:07:03;;;;;;;13.50;3.92;;;11.70;99.90;;;;;;5086856;28;20498;-59
2023/05/30 02:09:29;;;;;;;11.05;3.03;;;11.70;99.90;;;;;;5090008;28;20035;-59
2023/05/30 02:11:55;;;;;;;9.43;3.63;;;11.70;99.90;;;;;;5071426;28;20040;-58
2023/05/30 02:14:22;;;;;;;15.60;3.88;;;11.70;99.90;;;;;;5085784;28;20037;-57
2023/05/30 02:16:48;;;;;;;16.33;3.95;;;11.70;99.90;;;;;;5086107;28;20039;-58
2023/05/30 02:19:14;;;;;;;16.30;3.95;;;11.70;99.90;;;;;;5089994;28;20090;-58
2023/05/30 02:21:43;;;;;;;16.73;3.83;;;11.70;99.90;;;;;;5059692;28;20048;-58
2023/05/30 02:24:09;;;;;;;18.50;4.28;;;11.70;99.90;;;;;;5088032;28;20043;-59
2023/05/30 02:26:35;;;;;;;16.25;3.80;;;11.70;99.90;;;;;;5071837;28;20036;-58
2023/05/30 02:29:01;;;;;;;15.60;3.63;;;11.70;99.90;;;;;;5089352;28;20440;-57
2023/05/30 02:31:26;;;;;;;11.93;3.42;;;11.70;99.90;;;;;;5089017;28;20092;-58
2023/05/30 02:33:52;;;;;;;13.93;3.40;;;11.70;99.90;;;;;;5067840;28;20036;-58
2023/05/30 02:36:18;;;;;;;18.92;5.70;;;11.70;99.90;;;;;;5070101;28;20040;-59
2023/05/30 02:38:44;;;;;;;16.27;4.53;;;11.70;99.90;;;;;;5090074;28;20047;-59
2023/05/30 02:41:10;;;;;;;19.08;4.22;;;11.70;99.90;;;;;;5069837;28;20044;-59
2023/05/30 02:43:35;;;;;;;13.00;3.55;;;11.70;99.90;;;;;;5074656;28;20108;-59
2023/05/30 02:46:05;;;;;;;18.55;4.13;;;11.70;99.90;;;;;;5049571;28;20044;-60
2023/05/30 02:48:31;;;;;;;11.82;4.05;;;11.70;99.90;;;;;;5081386;28;20458;-59
2023/05/30 02:50:57;;;;;;;13.82;4.50;;;11.70;99.90;;;;;;5087616;28;20038;-59
2023/05/30 02:53:22;;;;;;;22.25;5.60;;;11.70;99.90;;;;;;5061758;28;20781;-58
2023/05/30 02:55:48;;;;;;;17.55;4.07;;;11.70;99.90;;;;;;5090735;28;20032;-59
2023/05/30 02:58:14;;;;;;;14.45;5.22;;;11.70;99.90;;;;;;5081524;28;20044;-59
2023/05/30 03:00:40;;;;;;;10.07;3.03;;;11.70;99.90;;;;;;5073483;28;20046;-60
2023/05/30 03:03:09;;;;;;;13.32;4.20;;;11.70;99.90;;;;;;5070484;28;20174;-60
2023/05/30 03:05:35;;;;;;;17.85;4.35;;;11.70;99.90;;;;;;5091379;28;20036;-58
2023/05/30 03:08:02;;;;;;;32.65;6.43;;;11.70;99.90;;;;;;5070477;28;20050;-58
2023/05/30 03:10:28;;;;;;;16.98;4.00;;;11.70;99.90;;;;;;5069620;28;20471;-59
2023/05/30 03:12:55;;;;;;;17.33;3.95;;;11.70;99.90;;;;;;5070075;28;20040;-59
2023/05/30 03:15:21;;;;;;;14.52;4.43;;;11.70;99.90;;;;;;5081923;28;20047;-59
2023/05/30 03:17:47;;;;;;;14.40;3.30;;;11.70;99.90;;;;;;5089862;28;20127;-59
2023/05/30 03:20:16;;;;;;;18.13;4.10;;;11.70;99.90;;;;;;5072134;28;20386;-58
2023/05/30 03:22:42;;;;;;;12.23;3.28;;;11.70;99.90;;;;;;5090024;28;20040;-58
2023/05/30 03:25:08;;;;;;;13.15;3.30;;;11.70;99.90;;;;;;5090368;28;20051;-59
2023/05/30 03:27:34;;;;;;;10.48;4.07;;;11.70;99.90;;;;;;5072382;28;20036;-59
2023/05/30 03:30:04;;;;;;;12.07;3.25;;;11.70;99.90;;;;;;5071878;28;20690;-58
2023/05/30 03:32:30;;;;;;;11.48;3.13;;;11.70;99.90;;;;;;5071568;28;20052;-59
2023/05/30 03:34:56;;;;;;;14.25;3.63;;;11.80;99.90;;;;;;5088261;28;20044;-59
2023/05/30 03:37:22;;;;;;;13.57;4.00;;;11.80;99.90;;;;;;5088456;28;20044;-58
2023/05/30 03:39:47;;;;;;;14.50;3.60;;;11.80;99.90;;;;;;5088595;28;20036;-59
2023/05/30 03:42:13;;;;;;;14.88;3.53;;;11.80;99.90;;;;;;5071374;28;20089;-59
2023/05/30 03:44:39;;;;;;;12.50;3.95;;;11.70;99.90;;;;;;5089633;28;20102;-59
2023/05/30 03:47:05;;;;;;;11.68;3.72;;;11.70;99.90;;;;;;5089777;28;20043;-58
2023/05/30 03:49:30;;;;;;;16.42;3.58;;;11.80;99.90;;;;;;5089886;28;20105;-59
2023/05/30 03:51:59;;;;;;;18.23;3.78;;;11.80;99.90;;;;;;5089605;28;20083;-59
2023/05/30 03:54:25;;;;;;;15.32;4.18;;;11.80;99.90;;;;;;5071742;28;20256;-59
2023/05/30 03:56:51;;;;;;;17.70;3.70;;;11.80;99.90;;;;;;5071569;28;20036;-59
2023/05/30 03:59:19;;;;;;;12.38;4.00;;;11.80;99.90;;;;;;5089350;28;20537;-59
2023/05/30 04:01:45;;;;;;;10.40;3.15;;;11.80;99.90;;;;;;5089514;28;20081;-59
2023/05/30 04:04:11;;;;;;;17.55;4.18;;;11.80;99.90;;;;;;5089694;28;20036;-59
2023/05/30 04:06:37;;;;;;;15.35;3.65;;;11.90;99.90;;;;;;5038031;28;20067;-59
2023/05/30 04:09:03;;;;;;;12.02;3.20;;;11.90;99.90;;;;;;5071223;28;20063;-58
2023/05/30 04:11:31;;;;;;;12.00;3.67;;;11.90;99.90;;;;;;5089310;28;20044;-58
2023/05/30 04:13:56;;;;;;;17.67;4.13;;;12.00;99.90;;;;;;5070838;28;20056;-59
2023/05/30 04:16:22;;;;;;;16.15;3.65;;;11.90;99.90;;;;;;5089573;28;20044;-59
2023/05/30 04:18:48;;;;;;;14.85;3.53;;;11.90;99.90;;;;;;5089611;28;20036;-59
2023/05/30 04:21:14;;;;;;;15.13;3.80;;;12.00;99.90;;;;;;5089479;28;20066;-59
2023/05/30 04:23:40;;;;;;;10.95;3.65;;;12.00;99.90;;;;;;5071384;28;20052;-59
2023/05/30 04:26:10;;;;;;;11.32;3.35;;;12.00;99.90;;;;;;5071352;28;20071;-59
2023/05/30 04:28:39;;;;;;;11.98;3.97;;;12.00;99.90;;;;;;5070905;28;20116;-59
2023/05/30 04:31:11;;;;;;;11.20;3.58;;;12.00;99.90;;;;;;5054587;28;20044;-59
2023/05/30 04:33:38;;;;;;;14.15;3.60;;;12.00;99.90;;;;;;5070935;28;20040;-59
2023/05/30 04:36:18;;;;;;;14.95;4.07;;;12.00;99.90;;;;;;5089200;28;20032;-59
2023/05/30 04:38:45;;;;;;;17.45;3.90;;;12.10;99.90;;;;;;5089476;28;20103;-58
2023/05/30 04:41:36;;;;;;;14.32;3.47;;;12.10;99.90;;;;;;5089346;28;20486;-59
2023/05/30 04:44:02;;;;;;;11.15;3.33;;;12.10;99.90;;;;;;5070461;28;20422;-59
2023/05/30 04:46:28;;;;;;;17.25;4.22;;;12.10;99.90;;;;;;5089047;28;20054;-59
2023/05/30 04:48:58;;;;;;;13.85;3.55;;;12.10;99.90;;;;;;5073936;28;20096;-59
2023/05/30 04:51:24;;;;;;;12.60;3.25;;;12.10;99.90;;;;;;5075598;28;20048;-58
2023/05/30 04:53:50;;;;;;;19.60;4.28;;;12.10;99.90;;;;;;5074367;28;20130;-59
2023/05/30 04:56:16;;;;;;;12.43;4.20;;;12.10;99.90;;;;;;5074691;28;20054;-58
2023/05/30 04:58:46;;;;;;;11.85;3.33;;;12.20;99.90;;;;;;5074830;28;20032;-59
2023/05/30 05:01:13;;;;;;;11.60;3.17;;;12.10;99.90;;;;;;5074494;28;20448;-59
2023/05/30 05:03:40;;;;;;;9.93;3.40;;;12.10;99.90;;;;;;5074323;28;20129;-59
2023/05/30 05:06:07;;;;;;;11.88;3.15;;;12.10;99.90;;;;;;5092678;28;20035;-58
2023/05/30 05:08:36;;;;;;;12.50;3.15;;;12.10;99.90;;;;;;5057615;28;20075;-59
2023/05/30 05:11:04;;;;;;;13.13;3.90;;;12.20;99.90;;;;;;5057401;28;20123;-59
2023/05/30 05:13:30;;;;;;;11.57;3.10;;;12.20;99.90;;;;;;5092151;28;20047;-59
2023/05/30 05:15:56;;;;;;;9.30;3.05;;;12.20;99.90;;;;;;5074251;28;20085;-59
2023/05/30 05:18:23;;;;;;;9.40;2.55;;;12.20;99.90;;;;;;5092240;28;20120;-59
2023/05/30 05:20:49;;;;;;;9.77;2.47;;;12.10;99.90;;;;;;5092539;28;20527;-59
2023/05/30 05:23:15;;;;;;;6.55;2.63;;;12.10;99.90;;;;;;5091982;28;20039;-58
2023/05/30 05:25:45;;;;;;;10.73;3.20;;;12.20;99.90;;;;;;5057169;28;20051;-58
2023/05/30 05:28:11;;;;;;;8.27;2.70;;;12.20;99.90;;;;;;5057508;28;20075;-59
2023/05/30 05:30:40;;;;;;;7.32;2.28;;;12.20;99.90;;;;;;5073151;28;20048;-59
2023/05/30 05:33:07;;;;;;;11.40;2.72;;;12.30;99.90;;;;;;5074142;28;20047;-59
2023/05/30 05:35:34;;;;;;;10.70;2.50;;;12.30;99.90;;;;;;5073627;28;20123;-59
2023/05/30 05:38:00;;;;;;;11.35;2.47;;;12.30;99.90;;;;;;5091896;28;20239;-59
2023/05/30 05:40:25;;;;;;;8.25;2.88;;;12.30;99.90;;;;;;5073588;28;20044;-58
2023/05/30 05:42:51;;;;;;;8.73;2.92;;;12.30;99.90;;;;;;5073737;28;20490;-59
2023/05/30 05:45:17;;;;;;;10.05;2.67;;;12.30;99.90;;;;;;5073320;28;20044;-59
2023/05/30 05:47:43;;;;;;;7.95;3.03;;;12.30;99.90;;;;;;5091843;28;20048;-59
2023/05/30 05:50:08;;;;;;;12.77;2.72;;;12.30;99.90;;;;;;5091489;28;20032;-58
2023/05/30 05:52:34;;;;;;;9.23;3.30;;;12.30;99.90;;;;;;5091451;28;20051;-58
2023/05/30 05:55:00;;;;;;;8.23;3.20;;;12.30;99.90;;;;;;5091795;28;20036;-59
2023/05/30 05:57:26;;;;;;;13.63;3.10;;;12.30;99.90;;;;;;5073388;28;20410;-59
2023/05/30 05:59:51;;;;;;;5.70;2.22;;;12.30;99.90;;;;;;5090393;28;20157;-59
2023/05/30 06:02:17;;;;;;;8.18;2.85;;;12.30;99.90;;;;;;5091072;28;20043;-58
2023/05/30 06:04:43;;;;;;;10.75;3.25;;;12.30;99.90;;;;;;5073325;28;20043;-59
2023/05/30 06:18:04;;;;;;;9.93;2.60;;;12.30;99.90;;;;;;5050617;28;20518;-58
2023/05/30 06:20:29;;;;;;;6.68;2.20;;;12.30;99.90;;;;;;5052911;28;20036;-59
2023/05/30 06:22:55;;;;;;;7.95;2.35;;;12.40;99.90;;;;;;5070928;28;20573;-59
2023/05/30 06:25:22;;;;;;;11.65;2.38;;;12.50;99.90;;;;;;5052432;28;20105;-59
2023/05/30 06:27:47;;;;;;;9.38;2.55;;;12.50;99.90;;;;;;5052580;28;20121;-58
2023/05/30 06:30:13;;;;;;;8.48;2.10;;;12.40;99.90;;;;;;5052535;28;20103;-59
2023/05/30 06:32:39;;;;;;;12.88;2.97;;;12.40;99.90;;;;;;5052712;28;20499;-59
2023/05/30 06:35:05;;;;;;;8.82;2.40;;;12.40;99.90;;;;;;5069102;28;20112;-59
2023/05/30 06:37:31;;;;;;;5.90;2.25;;;12.40;99.90;;;;;;5069994;28;20040;-61
2023/05/30 06:39:57;;;;;;;5.68;2.30;;;12.40;99.90;;;;;;5070338;28;20036;-58
2023/05/30 06:42:23;;;;;;;11.45;3.38;;;12.50;99.90;;;;;;5035597;28;20071;-57
2023/05/30 06:44:48;;;;;;;7.57;2.30;;;12.50;99.90;;;;;;5068662;28;20129;-58
2023/05/30 06:47:14;;;;;;;8.02;2.42;;;12.40;99.90;;;;;;5069368;28;20082;-58
2023/05/30 06:49:40;;;;;;;7.60;2.30;;;12.40;99.90;;;;;;5052069;28;20053;-60
2023/05/30 06:52:06;;;;;;;8.75;2.45;;;12.40;99.90;;;;;;5035502;28;20045;-60
2023/05/30 06:54:32;;;;;;;6.88;2.20;;;12.40;99.90;;;;;;5069306;28;20037;-58
2023/05/30 06:57:04;;;;;;;6.80;1.95;;;12.50;99.90;;;;;;5069838;28;20033;-57
2023/05/30 06:59:30;;;;;;;7.13;2.30;;;12.50;99.90;;;;;;5070221;28;20327;-58
2023/05/30 07:01:56;;;;;;;6.03;2.00;;;12.60;99.90;;;;;;5069465;28;20033;-56
2023/05/30 07:04:23;;;;;;;5.05;1.90;;;12.70;99.90;;;;;;5051832;28;20034;-60
2023/05/30 07:06:49;;;;;;;10.65;3.42;;;12.70;99.90;;;;;;5052115;28;20567;-60
2023/05/30 07:09:15;;;;;;;5.90;1.60;;;12.70;99.90;;;;;;5052189;28;20040;-57
2023/05/30 07:11:41;;;;;;;3.15;1.60;;;12.70;99.90;;;;;;5069335;28;20501;-57
2023/05/30 07:14:07;;;;;;;7.78;2.10;;;12.80;99.90;;;;;;5069729;28;20036;-57
2023/05/30 07:16:32;;;;;;;7.03;1.80;;;12.70;99.90;;;;;;5035130;28;20044;-57
2023/05/30 07:18:58;;;;;;;6.10;1.92;;;12.70;99.90;;;;;;5067638;28;20119;-59
2023/05/30 07:21:28;;;;;;;5.15;1.95;;;12.80;99.90;;;;;;5071559;28;20494;-60
2023/05/30 07:23:53;;;;;;;7.93;1.90;;;12.80;99.90;;;;;;5055047;28;20044;-58
2023/05/30 07:26:19;;;;;;;7.22;2.50;;;12.80;99.90;;;;;;5089675;28;20047;-58
2023/05/30 07:28:45;;;;;;;7.85;2.50;;;12.90;99.90;;;;;;5072081;28;20136;-57
2023/05/30 07:31:11;;;;;;;5.40;2.22;;;12.90;99.90;;;;;;5090037;28;20048;-56
2023/05/30 07:33:36;;;;;;;5.97;1.73;;;12.90;99.90;;;;;;5089902;28;20055;-60
2023/05/30 07:36:02;;;;;;;6.72;2.05;;;12.90;99.90;;;;;;5038417;28;20612;-60
2023/05/30 07:38:28;;;;;;;6.97;2.13;;;12.90;99.90;;;;;;5089878;28;20039;-56
2023/05/30 07:40:54;;;;;;;5.30;2.03;;;12.90;99.90;;;;;;5089956;28;20040;-58
2023/05/30 07:43:19;;;;;;;4.75;1.70;;;12.90;99.90;;;;;;5089648;28;20127;-57
2023/05/30 07:45:45;;;;;;;4.22;2.15;;;12.90;99.90;;;;;;5071795;28;20414;-58
2023/05/30 07:48:11;;;;;;;7.68;2.00;;;12.90;99.90;;;;;;5089764;28;20040;-57
2023/05/30 07:50:37;;;;;;;4.57;1.88;;;12.90;99.90;;;;;;5089667;28;20040;-60
2023/05/30 07:53:03;;;;;;;10.10;2.75;;;12.90;99.90;;;;;;5089395;28;20498;-57
2023/05/30 07:55:28;;;;;;;10.27;2.60;;;13.00;99.90;;;;;;5071146;28;20032;-58
2023/05/30 07:57:54;;;;;;;7.50;2.42;;;13.00;99.90;;;;;;5054840;28;20040;-57
2023/05/30 08:00:20;;;;;;;8.40;3.05;;;13.00;99.90;;;;;;5069490;28;20251;-58
2023/05/30 08:02:45;;;;;;;5.97;1.70;;;13.10;99.90;;;;;;5051527;28;20338;-58
2023/05/30 08:05:11;;;;;;;5.15;2.35;;;13.10;99.90;;;;;;5051371;28;20530;-60
2023/05/30 08:07:37;;;;;;;3.70;1.73;;;13.10;99.90;;;;;;5069085;28;20040;-60
2023/05/30 08:10:03;;;;;;;5.20;2.67;;;13.20;99.90;;;;;;5051386;28;20047;-58
2023/05/30 08:12:29;;;;;;;4.22;2.05;;;13.20;99.90;;;;;;5051015;28;20037;-57
2023/05/30 08:14:58;;;;;;;5.35;2.15;;;13.20;99.90;;;;;;5051259;28;20552;-57
2023/05/30 08:17:25;;;;;;;5.55;1.83;;;13.20;99.90;;;;;;5050722;28;20044;-57
2023/05/30 08:19:55;;;;;;;7.63;2.10;;;13.20;99.90;;;;;;5034933;28;20479;-59
2023/05/30 08:22:23;;;;;;;5.68;1.65;;;13.20;99.90;;;;;;5079771;28;20060;-57
2023/05/30 08:24:50;;;;;;;3.90;1.30;;;13.20;99.90;;;;;;5092743;28;20048;-57
2023/05/30 08:27:17;;;;;;;2.90;1.08;;;13.20;99.90;;;;;;5074780;28;20444;-57
2023/05/30 08:29:43;;;;;;;7.25;1.70;;;13.20;99.90;;;;;;5075148;28;20575;-57
2023/05/30 08:32:12;;;;;;;1.73;0.93;;;13.20;99.90;;;;;;5093190;28;20086;-59
2023/05/30 08:34:38;;;;;;;2.45;1.08;;;13.30;99.90;;;;;;5092731;28;20040;-60
2023/05/30 08:37:05;;;;;;;2.08;1.27;;;13.20;99.90;;;;;;5092548;28;20036;-56
2023/05/30 08:39:33;;;;;;;2.00;1.10;;;13.20;99.90;;;;;;5074832;28;20047;-56
2023/05/30 08:41:59;;;;;;;2.70;1.20;;;13.20;99.90;;;;;;5057139;28;20097;-57
2023/05/30 08:44:25;;;;;;;1.75;0.90;;;13.20;99.90;;;;;;5058067;28;20769;-57
2023/05/30 08:46:51;;;;;;;4.35;1.20;;;13.20;99.90;;;;;;5092727;28;20056;-60
2023/05/30 08:49:24;;;;;;;2.42;0.73;;;13.30;99.90;;;;;;5057783;28;20127;-60
2023/05/30 08:51:54;;;;;;;2.20;1.02;;;13.30;99.90;;;;;;5092567;28;20040;-57
2023/05/30 08:54:31;;;;;;;4.00;1.20;;;13.40;99.90;;;;;;5074622;28;20040;-57
2023/05/30 08:57:13;;;;;;;3.22;1.00;;;13.50;99.90;;;;;;5073478;28;20056;-59
2023/05/30 08:59:40;;;;;;;3.30;1.00;;;13.50;99.90;;;;;;5074362;28;20043;-59
2023/05/30 09:02:07;;;;;;;2.10;1.00;;;13.50;99.90;;;;;;5074500;28;20055;-60
2023/05/30 09:04:37;;;;;;;3.13;1.05;;;13.50;99.90;;;;;;5074497;28;20552;-59
2023/05/30 09:07:03;;;;;;;2.55;1.00;;;13.40;99.90;;;;;;5057560;28;20090;-57
2023/05/30 09:09:32;;;;;;;2.38;1.02;;;13.40;99.90;;;;;;5092561;28;20040;-59
2023/05/30 09:11:58;;;;;;;2.88;1.27;;;13.50;99.90;;;;;;5074144;28;20047;-60
2023/05/30 09:14:24;;;;;;;3.13;0.80;;;13.50;99.90;;;;;;5073433;28;20075;-57
2023/05/30 09:16:50;;;;;;;1.63;0.70;;;13.60;99.90;;;;;;5083570;22;20515;-61
2023/05/30 09:19:16;;;;;;;0.98;0.70;;;13.70;99.90;;;;;;5033669;28;20053;-60
2023/05/30 09:21:42;;;;;;;2.58;0.82;;;13.70;99.90;;;;;;5034465;28;20059;-60
2023/05/30 09:24:08;;;;;;;2.65;0.90;;;13.70;99.90;;;;;;5033732;28;20053;-61
2023/05/30 09:26:34;;;;;;;1.48;0.82;;;13.60;99.90;;;;;;5050707;28;20399;-61
2023/05/30 09:29:17;;;;;;;1.17;0.93;;;13.50;99.90;;;;;;5051718;28;20102;-60
2023/05/30 09:31:43;;;;;;;2.17;0.95;;;13.40;99.90;;;;;;5052299;28;20505;-61
2023/05/30 09:34:17;;;;;;;2.53;1.00;;;13.30;99.90;;;;;;5051360;28;20115;-61
2023/05/30 09:36:56;;;;;;;1.63;0.88;;;13.30;99.90;;;;;;5051515;28;20036;-61
2023/05/30 09:39:23;;;;;;;1.75;0.52;;;13.40;99.90;;;;;;5017188;28;20041;-62
2023/05/30 09:41:55;;;;;;;1.52;0.70;;;13.40;99.90;;;;;;5051577;28;20611;-62
2023/05/30 09:44:20;;;;;;;0.63;0.60;;;13.60;99.90;;;;;;5033473;28;20048;-62
2023/05/30 09:46:47;;;;;;;1.70;0.70;;;13.70;99.90;;;;;;5033661;28;20033;-60
2023/05/30 09:49:13;;;;;;;2.03;0.95;;;13.90;99.90;;;;;;5033120;28;20041;-61
2023/05/30 09:51:39;;;;;;;2.60;0.98;;;14.10;99.90;;;;;;5016523;28;20048;-60
2023/05/30 09:54:06;;;;;;;2.25;0.85;;;14.20;99.90;;;;;;5015987;28;20033;-60
2023/05/30 09:56:37;;;;;;;3.08;0.70;;;14.30;99.90;;;;;;5025211;28;20037;-61
2023/05/30 09:59:07;;;;;;;2.95;1.00;;;14.40;99.90;;;;;;5049683;28;20037;-61
2023/05/30 10:01:44;;;;;;;4.47;0.98;;;14.40;99.90;;;;;;5022301;28;20034;-63
2023/05/30 10:04:20;;;;;;;1.70;0.88;;;14.50;99.90;;;;;;5023225;28;20463;-60
2023/05/30 10:06:52;;;;;;;1.80;0.98;;;14.50;99.90;;;;;;5030343;28;20124;-60
2023/05/30 10:09:22;;;;;;;3.47;0.90;;;14.40;99.90;;;;;;5021873;28;20091;-60
2023/05/30 10:11:49;;;;;;;3.53;1.00;;;14.20;99.90;;;;;;5046184;28;20115;-61
2023/05/30 10:14:15;;;;;;;2.35;1.10;;;14.00;99.90;;;;;;5029158;28;20041;-61
2023/05/30 10:16:52;;;;;;;2.30;1.30;;;14.00;99.90;;;;;;5046744;28;20049;-61
2023/05/30 10:19:25;;;;;;;3.22;1.00;;;13.90;99.90;;;;;;5028343;28;20037;-61
2023/05/30 10:21:53;;;;;;;2.53;0.85;;;13.80;99.90;;;;;;5042051;28;20041;-61
2023/05/30 10:24:20;;;;;;;2.33;0.80;;;13.90;99.90;;;;;;5046493;28;20037;-60
2023/05/30 10:26:54;;;;;;;3.05;0.70;;;13.90;99.90;;;;;;5027016;28;20103;-61
2023/05/30 10:29:23;;;;;;;1.95;0.70;;;14.00;99.90;;;;;;5043907;28;20865;-61
2023/05/30 10:31:52;;;;;;;3.22;0.77;;;14.10;99.90;;;;;;5013889;28;20041;-61
2023/05/30 10:34:24;;;;;;;1.10;1.00;;;14.20;99.90;;;;;;5031292;28;20040;-61
2023/05/30 10:36:51;;;;;;;1.23;0.60;;;14.20;99.90;;;;;;5048622;28;20040;-61
2023/05/30 10:39:37;;;;;;;1.30;0.80;;;14.20;99.90;;;;;;5026938;28;20110;-61
2023/05/30 10:42:10;;;;;;;1.95;0.80;;;14.30;99.90;;;;;;5050089;28;20040;-61
2023/05/30 10:44:55;;;;;;;1.13;0.70;;;14.40;99.90;;;;;;5046736;28;20083;-61
2023/05/30 10:48:12;;;;;;;1.27;0.68;;;14.50;99.90;;;;;;5041398;28;20048;-62
2023/05/30 10:50:42;;;;;;;2.35;1.00;;;14.50;99.90;;;;;;5009918;28;20618;-61
2023/05/30 10:53:18;;;;;;;1.33;0.70;;;14.50;99.90;;;;;;5049812;28;20122;-61
2023/05/30 10:55:47;;;;;;;2.13;0.80;;;14.60;99.90;;;;;;5031132;28;20067;-61
2023/05/30 10:58:37;;;;;;;1.95;0.80;;;14.70;99.90;;;;;;5050718;28;20111;-61
2023/05/30 11:01:26;;;;;;;2.00;0.80;;;14.60;99.90;;;;;;5028987;28;20032;-61
2023/05/30 11:03:56;;;;;;;1.83;1.00;;;14.50;99.90;;;;;;5049290;28;20052;-61
2023/05/30 11:06:26;;;;;;;2.15;1.35;;;14.40;99.90;;;;;;5052574;28;20037;-60
2023/05/30 11:08:53;;;;;;;2.67;1.27;;;14.50;99.90;;;;;;5027945;28;20402;-59
2023/05/30 11:11:20;;;;;;;1.75;1.00;;;14.40;99.90;;;;;;5043291;28;20167;-60
2023/05/30 11:13:55;;;;;;;4.53;1.33;;;14.40;99.90;;;;;;5003720;28;20056;-61
2023/05/30 11:16:24;;;;;;;3.45;1.13;;;14.50;99.90;;;;;;5029241;28;20102;-61
2023/05/30 11:18:53;;;;;;;2.40;0.98;;;14.60;99.90;;;;;;5014810;28;20048;-62
2023/05/30 11:21:56;;;;;;;1.38;0.63;;;14.60;99.90;;;;;;5029697;28;20069;-62
2023/05/30 11:24:24;;;;;;;2.30;0.98;;;14.70;99.90;;;;;;5049095;28;20068;-61
2023/05/30 11:27:08;;;;;;;1.50;0.88;;;14.60;99.90;;;;;;5031028;28;20040;-61
2023/05/30 11:29:43;;;;;;;6.30;1.02;;;14.60;99.90;;;;;;5041223;28;20052;-61
2023/05/30 11:32:10;;;;;;;1.20;0.80;;;14.60;99.90;;;;;;5023110;28;20707;-62
2023/05/30 11:34:37;;;;;;;1.27;0.93;;;14.70;99.90;;;;;;5031075;28;20036;-61
2023/05/30 11:37:04;;;;;;;0.95;0.75;;;14.90;99.90;;;;;;5049401;28;20094;-61
2023/05/30 11:39:36;;;;;;;1.70;0.90;;;15.00;99.90;;;;;;5049269;28;20037;-62
2023/05/30 11:42:07;;;;;;;1.15;0.70;;;15.20;99.90;;;;;;5049024;28;20072;-60
2023/05/30 11:44:33;;;;;;;2.22;0.73;;;15.30;99.90;;;;;;5028747;28;20041;-62
2023/05/30 11:47:04;;;;;;;1.52;0.90;;;15.20;99.90;;;;;;5061811;28;20383;-62
2023/05/30 11:49:31;;;;;;;2.08;1.05;;;15.30;99.90;;;;;;5031107;28;20116;-62
2023/05/30 11:51:57;;;;;;;2.22;0.90;;;15.10;99.90;;;;;;5031396;28;20115;-61
2023/05/30 11:54:23;;;;;;;4.60;1.30;;;15.00;99.90;;;;;;5014364;28;20107;-61
2023/05/30 11:56:50;;;;;;;1.58;1.00;;;14.90;99.90;;;;;;5040748;28;20053;-61
2023/05/30 11:59:24;;;;;;;2.58;1.10;;;14.80;99.90;;;;;;5035090;28;20597;-62
2023/05/30 12:01:57;;;;;;;2.67;1.23;;;14.90;99.90;;;;;;5052829;28;20033;-61
2023/05/30 12:04:25;;;;;;;2.35;0.88;;;15.00;99.90;;;;;;5028475;28;20043;-61
2023/05/30 12:06:51;;;;;;;1.33;0.90;;;15.00;99.90;;;;;;5034934;28;20081;-62
2023/05/30 12:09:17;;;;;;;3.17;0.90;;;15.00;99.90;;;;;;5034824;28;20134;-61
2023/05/30 12:12:09;;;;;;;1.50;1.00;;;15.10;99.90;;;;;;5018363;28;20099;-62
2023/05/30 12:14:44;;;;;;;1.60;1.00;;;15.30;99.90;;;;;;5030672;28;20071;-61
2023/05/30 12:17:14;;;;;;;1.95;0.73;;;15.40;99.90;;;;;;5049993;28;20033;-62
2023/05/30 12:19:42;;;;;;;3.72;1.00;;;15.40;99.90;;;;;;5049121;28;20037;-60
2023/05/30 12:22:09;;;;;;;2.60;1.40;;;15.40;99.90;;;;;;5036397;28;20037;-62
2023/05/30 12:24:38;;;;;;;2.55;1.20;;;15.30;99.90;;;;;;5015899;28;20036;-62
2023/05/30 12:27:18;;;;;;;3.25;1.30;;;15.20;99.90;;;;;;5012451;28;20431;-62
2023/05/30 12:29:44;;;;;;;2.90;1.85;;;15.20;99.90;;;;;;5048026;28;20052;-62
2023/05/30 12:32:11;;;;;;;2.72;1.02;;;15.20;99.90;;;;;;5032747;28;20045;-62
2023/05/30 12:34:46;;;;;;;4.07;1.58;;;15.20;99.90;;;;;;5036161;28;20044;-62
2023/05/30 12:37:14;;;;;;;3.05;1.60;;;15.20;99.90;;;;;;5051416;28;20649;-62
2023/05/30 12:39:52;;;;;;;2.45;1.50;;;15.20;99.90;;;;;;5031260;28;20051;-62
2023/05/30 12:42:25;;;;;;;3.50;1.65;;;15.30;99.90;;;;;;5017085;28;20044;-61
2023/05/30 12:45:03;;;;;;;5.93;1.60;;;15.30;99.90;;;;;;5052361;28;20079;-62
2023/05/30 12:47:29;;;;;;;6.15;1.15;;;15.40;99.90;;;;;;5033679;28;20037;-62
2023/05/30 12:49:56;;;;;;;3.35;1.42;;;15.40;99.90;;;;;;5051548;28;20044;-62
2023/05/30 12:52:27;;;;;;;3.70;1.60;;;15.40;99.90;;;;;;5033871;28;20097;-61
2023/05/30 12:54:53;;;;;;;3.40;1.33;;;15.40;99.90;;;;;;5052472;28;20487;-61
2023/05/30 12:57:25;;;;;;;3.17;1.30;;;15.50;99.90;;;;;;5044294;28;21440;-63
2023/05/30 12:59:54;;;;;;;4.53;1.95;;;15.50;99.90;;;;;;5021036;28;20045;-60
2023/05/30 13:02:24;;;;;;;2.70;1.83;;;15.70;99.90;;;;;;5032595;28;20577;-62